Terminal Aerodrome Forecast
Issued by NWS Sterling, VA

Current Version | Previous Version | Text Only | Print | Product List | Glossary Off
Versions: 1 2 3 4 5 6 7 8 9 10 11 12 13 14 15 16 17 18 19 20 21 22 23 24 25 26

000
FTUS41 KLWX 221733
TAFIAD
TAF
KIAD 221733Z 2218/2324 28013G22KT P6SM FEW080
     FM222300 31008KT P6SM FEW200
     FM230900 33004KT P6SM SKC
     FM231900 27004KT P6SM FEW200
     FM232300 21004KT P6SM FEW150=

USA.gov is the U.S. government's official web portal to all federal, state and local government web resources and services.